createdAt,value
2023-05-14T00:00:26.054Z,31.06
2023-05-14T00:01:26.057Z,31.06
2023-05-14T00:02:26.193Z,31.05
2023-05-14T00:03:27.100Z,31.05
2023-05-14T00:04:26.234Z,31.06
2023-05-14T00:05:26.176Z,31.02
2023-05-14T00:06:26.229Z,31.05
2023-05-14T00:07:26.277Z,30.97
2023-05-14T00:08:26.292Z,31.02
2023-05-14T00:09:26.341Z,31.02
2023-05-14T00:10:26.373Z,31.05
2023-05-14T00:11:26.409Z,31.06
2023-05-14T00:12:26.407Z,31.02
2023-05-14T00:13:26.433Z,31.06
2023-05-14T00:14:26.441Z,31.00
2023-05-14T00:15:26.490Z,31.07
2023-05-14T00:16:26.547Z,30.97
2023-05-14T00:17:26.600Z,31.02
2023-05-14T00:18:26.671Z,31.05
2023-05-14T00:19:26.624Z,31.02
2023-05-14T00:20:26.617Z,31.06
2023-05-14T00:21:26.691Z,31.09
2023-05-14T00:22:26.695Z,31.02
2023-05-14T00:23:26.761Z,31.00
2023-05-14T00:24:26.809Z,31.05
2023-05-14T00:25:26.814Z,31.03
2023-05-14T00:26:26.887Z,31.02
2023-05-14T00:27:26.940Z,31.06
2023-05-14T00:28:26.936Z,31.03
2023-05-14T00:29:27.012Z,31.07
2023-05-14T00:30:27.011Z,31.06
2023-05-14T00:31:27.090Z,31.07
2023-05-14T00:32:27.140Z,31.07
2023-05-14T00:33:27.134Z,31.06
2023-05-14T00:34:27.189Z,31.05
2023-05-14T00:35:27.241Z,31.06
2023-05-14T00:36:27.253Z,31.02
2023-05-14T00:37:27.303Z,31.07
2023-05-14T00:38:27.386Z,31.05
2023-05-14T00:39:27.371Z,31.03
2023-05-14T00:40:27.435Z,31.02
2023-05-14T00:41:27.506Z,31.05
2023-05-14T00:42:27.508Z,31.03
2023-05-14T00:43:27.560Z,31.06
2023-05-14T00:44:27.617Z,31.03
2023-05-14T00:45:27.656Z,31.06
2023-05-14T00:46:27.696Z,31.05
2023-05-14T00:47:27.883Z,31.06
2023-05-14T00:48:27.745Z,31.06
2023-05-14T00:49:27.746Z,31.05
2023-05-14T00:50:27.760Z,31.06
2023-05-14T00:51:27.811Z,31.03
2023-05-14T00:52:27.823Z,31.03
2023-05-14T00:53:28.036Z,31.05
2023-05-14T00:54:27.892Z,31.06
2023-05-14T00:55:28.021Z,31.11
2023-05-14T00:56:27.936Z,31.06
2023-05-14T00:57:27.961Z,31.03
2023-05-14T00:58:27.972Z,31.03
2023-05-14T00:59:28.084Z,31.06
2023-05-14T01:00:28.086Z,31.06
2023-05-14T01:01:28.243Z,31.05
2023-05-14T01:02:28.259Z,31.06
2023-05-14T01:03:28.289Z,31.03
2023-05-14T01:04:28.521Z,31.05
2023-05-14T01:05:28.229Z,31.09
2023-05-14T01:06:28.315Z,31.03
2023-05-14T01:07:28.324Z,31.07
2023-05-14T01:08:28.333Z,31.01
2023-05-14T01:09:28.403Z,31.01
2023-05-14T01:10:28.398Z,31.04
2023-05-14T01:11:28.447Z,31.05
2023-05-14T01:12:28.431Z,31.03
2023-05-14T01:13:28.536Z,31.05
2023-05-14T01:14:28.531Z,31.04
2023-05-14T01:15:28.547Z,31.05
2023-05-14T01:16:28.651Z,31.03
2023-05-14T01:17:28.591Z,31.06
2023-05-14T01:18:28.683Z,31.05
2023-05-14T01:19:28.680Z,31.06
2023-05-14T01:20:28.743Z,31.03
2023-05-14T01:21:28.727Z,31.06
2023-05-14T01:22:28.789Z,31.07
2023-05-14T01:23:28.793Z,31.06
2023-05-14T01:24:28.831Z,31.07
2023-05-14T01:25:28.865Z,31.05
2023-05-14T01:26:28.970Z,31.01
2023-05-14T01:27:28.971Z,31.15
2023-05-14T01:28:29.046Z,31.05
2023-05-14T01:29:29.052Z,31.03
2023-05-14T01:30:29.089Z,31.06
2023-05-14T01:31:29.179Z,31.05
2023-05-14T01:32:29.185Z,31.06
2023-05-14T01:33:29.241Z,31.06
2023-05-14T01:34:30.042Z,31.07
2023-05-14T01:35:29.333Z,31.07
2023-05-14T01:36:29.297Z,31.09
2023-05-14T01:37:29.413Z,31.03
2023-05-14T01:38:29.416Z,31.07
2023-05-14T01:39:29.459Z,31.06
2023-05-14T01:40:29.537Z,31.01
2023-05-14T01:41:29.529Z,31.06
2023-05-14T01:42:29.598Z,31.03
2023-05-14T01:43:29.631Z,31.07
2023-05-14T01:44:29.706Z,31.05
2023-05-14T01:45:29.716Z,31.08
2023-05-14T01:46:29.778Z,31.06
2023-05-14T01:47:29.809Z,31.10
2023-05-14T01:48:29.820Z,31.04
2023-05-14T01:49:29.897Z,31.04
2023-05-14T01:50:29.901Z,31.06
2023-05-14T01:51:30.014Z,31.09
2023-05-14T01:52:30.008Z,31.03
2023-05-14T01:53:30.071Z,31.03
2023-05-14T01:54:30.079Z,31.06
2023-05-14T01:55:30.190Z,31.04
2023-05-14T01:56:30.555Z,31.04
2023-05-14T01:57:30.249Z,31.07
2023-05-14T01:58:30.257Z,31.05
2023-05-14T01:59:30.310Z,31.08
2023-05-14T02:00:30.389Z,31.05
2023-05-14T02:01:30.445Z,31.07
2023-05-14T02:02:30.473Z,31.08
2023-05-14T02:03:30.553Z,31.04
2023-05-14T02:04:30.513Z,31.08
2023-05-14T02:05:30.548Z,31.03
2023-05-14T02:06:30.619Z,31.07
2023-05-14T02:07:30.631Z,31.07
2023-05-14T02:08:30.645Z,31.04
2023-05-14T02:09:30.681Z,31.05
2023-05-14T02:10:30.774Z,31.03
2023-05-14T02:11:30.779Z,31.05
2023-05-14T02:12:30.812Z,31.08
2023-05-14T02:13:31.091Z,31.04
2023-05-14T02:14:30.903Z,31.09
2023-05-14T02:15:30.951Z,31.05
2023-05-14T02:16:30.958Z,31.08
2023-05-14T02:17:31.097Z,31.07
2023-05-14T02:18:31.077Z,31.07
2023-05-14T02:19:31.073Z,31.07
2023-05-14T02:20:31.132Z,31.08
2023-05-14T02:21:31.172Z,31.08
2023-05-14T02:22:31.255Z,31.07
2023-05-14T02:23:41.106Z,31.00
2023-05-14T02:24:32.296Z,31.07
2023-05-14T02:25:31.272Z,31.07
2023-05-14T02:26:31.234Z,31.05
2023-05-14T02:27:31.217Z,31.07
2023-05-14T02:28:31.221Z,31.04
2023-05-14T02:29:31.246Z,31.05
2023-05-14T02:30:31.210Z,31.10
2023-05-14T02:31:31.266Z,31.04
2023-05-14T02:32:31.308Z,31.08
2023-05-14T02:33:31.341Z,31.01
2023-05-14T02:34:31.158Z,31.01
2023-05-14T02:35:31.242Z,31.05
2023-05-14T02:36:31.285Z,31.08
2023-05-14T02:37:31.379Z,31.08
2023-05-14T02:38:31.366Z,31.04
2023-05-14T02:39:31.367Z,31.05
2023-05-14T02:40:31.418Z,31.04
2023-05-14T02:41:31.464Z,31.07
2023-05-14T02:42:31.495Z,30.99
2023-05-14T02:43:31.546Z,31.07
2023-05-14T02:44:32.586Z,31.05
2023-05-14T02:45:31.676Z,31.02
2023-05-14T02:46:31.754Z,31.11
2023-05-14T02:47:31.765Z,31.10
2023-05-14T02:48:31.830Z,31.08
2023-05-14T02:49:31.803Z,31.04
2023-05-14T02:50:31.901Z,31.07
2023-05-14T02:51:32.071Z,31.05
2023-05-14T02:52:31.946Z,31.08
2023-05-14T02:53:31.975Z,31.08
2023-05-14T02:54:32.025Z,31.05
2023-05-14T02:55:32.093Z,31.07
2023-05-14T02:56:32.155Z,31.10
2023-05-14T02:57:32.194Z,31.04
2023-05-14T02:58:32.331Z,31.11
2023-05-14T02:59:32.268Z,31.07
2023-05-14T03:00:32.319Z,31.10
2023-05-14T03:01:32.344Z,31.11
2023-05-14T03:02:32.426Z,31.10
2023-05-14T03:03:32.470Z,31.07
2023-05-14T03:04:32.460Z,31.07
2023-05-14T03:05:32.463Z,31.05
2023-05-14T03:06:32.525Z,31.07
2023-05-14T03:07:32.587Z,31.08
2023-05-14T03:08:32.599Z,31.08
2023-05-14T03:09:32.623Z,31.10
2023-05-14T03:10:33.573Z,31.08
2023-05-14T03:11:32.787Z,31.07
2023-05-14T03:12:32.784Z,31.08
2023-05-14T03:13:32.837Z,31.08
2023-05-14T03:14:32.877Z,31.07
2023-05-14T03:15:32.913Z,31.10
2023-05-14T03:16:32.997Z,31.07
2023-05-14T03:17:33.036Z,31.11
2023-05-14T03:18:33.117Z,31.01
2023-05-14T03:19:33.088Z,31.07
2023-05-14T03:20:33.171Z,31.05
2023-05-14T03:21:33.202Z,31.05
2023-05-14T03:22:33.237Z,31.12
2023-05-14T03:23:33.315Z,31.08
2023-05-14T03:24:33.346Z,31.08
2023-05-14T03:25:33.386Z,31.10
2023-05-14T03:26:33.429Z,31.05
2023-05-14T03:27:33.484Z,31.08
2023-05-14T03:28:33.558Z,31.08
2023-05-14T03:29:33.567Z,31.04
2023-05-14T03:30:33.606Z,31.05
2023-05-14T03:31:33.601Z,31.10
2023-05-14T03:32:34.626Z,31.12
2023-05-14T03:33:33.700Z,31.06
2023-05-14T03:34:33.754Z,31.05
2023-05-14T03:35:33.819Z,31.02
2023-05-14T03:36:33.812Z,31.07
2023-05-14T03:37:33.892Z,31.08
2023-05-14T03:38:33.907Z,31.10
2023-05-14T03:39:33.919Z,31.10
2023-05-14T03:40:33.932Z,31.11
2023-05-14T03:41:34.006Z,31.08
2023-05-14T03:42:34.031Z,31.08
2023-05-14T03:43:34.075Z,31.11
2023-05-14T03:44:34.124Z,31.08
2023-05-14T03:45:34.123Z,31.14
2023-05-14T03:46:34.182Z,31.08
2023-05-14T03:47:34.291Z,31.14
2023-05-14T03:48:34.313Z,31.04
2023-05-14T03:49:35.083Z,31.08
2023-05-14T03:50:34.376Z,31.07
2023-05-14T03:51:34.436Z,31.05
2023-05-14T03:52:34.442Z,31.04
2023-05-14T03:53:34.499Z,31.07
2023-05-14T03:54:34.551Z,31.11
2023-05-14T03:55:34.563Z,31.04
2023-05-14T03:56:34.622Z,31.08
2023-05-14T03:57:34.654Z,31.10
2023-05-14T03:58:34.690Z,31.10
2023-05-14T03:59:34.746Z,31.08
2023-05-14T04:00:34.744Z,31.08
2023-05-14T04:01:34.779Z,31.05
2023-05-14T04:02:34.904Z,31.10
2023-05-14T04:03:35.124Z,31.10
2023-05-14T04:04:34.997Z,31.10
2023-05-14T04:05:35.011Z,31.08
2023-05-14T04:06:35.039Z,31.08
2023-05-14T04:07:35.131Z,31.06
2023-05-14T04:08:35.177Z,31.11
2023-05-14T04:09:35.190Z,31.07
2023-05-14T04:10:35.220Z,31.10
2023-05-14T04:11:35.264Z,31.07
2023-05-14T04:12:35.325Z,31.08
2023-05-14T04:13:35.337Z,31.11
2023-05-14T04:14:35.391Z,31.05
2023-05-14T04:15:35.440Z,31.02
2023-05-14T04:16:35.531Z,31.10
2023-05-14T04:17:35.522Z,31.14
2023-05-14T04:18:35.596Z,31.08
2023-05-14T04:19:35.597Z,31.11
2023-05-14T04:20:35.610Z,31.04
2023-05-14T04:21:35.650Z,31.07
2023-05-14T04:22:35.690Z,31.06
2023-05-14T04:23:35.722Z,31.09
2023-05-14T04:24:35.827Z,31.09
2023-05-14T04:25:35.786Z,31.10
2023-05-14T04:26:35.836Z,31.07
2023-05-14T04:27:35.925Z,31.11
2023-05-14T04:28:35.937Z,31.11
2023-05-14T04:29:35.955Z,31.06
2023-05-14T04:30:36.057Z,31.05
2023-05-14T04:31:36.067Z,31.11
2023-05-14T04:32:36.108Z,31.12
2023-05-14T04:33:36.125Z,31.06
2023-05-14T04:34:36.203Z,31.10
2023-05-14T04:35:36.223Z,31.16
2023-05-14T04:36:36.295Z,31.12
2023-05-14T04:37:36.355Z,31.07
2023-05-14T04:38:36.313Z,31.05
2023-05-14T04:39:36.383Z,31.12
2023-05-14T04:40:36.369Z,31.11
2023-05-14T04:41:36.450Z,31.08
2023-05-14T04:42:36.498Z,31.10
2023-05-14T04:43:36.490Z,31.14
2023-05-14T04:44:36.624Z,31.05
2023-05-14T04:45:36.567Z,31.10
2023-05-14T04:46:36.786Z,31.08
2023-05-14T04:47:36.730Z,31.11
2023-05-14T04:48:36.732Z,31.11
2023-05-14T04:49:36.811Z,31.12
2023-05-14T04:50:36.857Z,31.08
2023-05-14T04:51:36.925Z,31.08
2023-05-14T04:52:36.938Z,31.11
2023-05-14T04:53:36.972Z,31.14
2023-05-14T04:54:37.100Z,31.10
2023-05-14T04:55:37.059Z,31.14
2023-05-14T04:56:37.088Z,31.17
2023-05-14T04:57:37.177Z,31.12
2023-05-14T04:58:37.218Z,31.10
2023-05-14T04:59:37.259Z,31.08
2023-05-14T05:00:37.294Z,31.10
2023-05-14T05:01:37.388Z,31.05
2023-05-14T05:02:37.384Z,31.14
2023-05-14T05:03:37.395Z,31.12
2023-05-14T05:04:37.390Z,31.08
2023-05-14T05:05:37.624Z,31.06
2023-05-14T05:06:37.553Z,31.11
2023-05-14T05:07:37.542Z,31.16
2023-05-14T05:08:37.600Z,31.12
2023-05-14T05:09:37.642Z,31.12
2023-05-14T05:10:37.669Z,31.06
2023-05-14T05:11:37.733Z,31.12
2023-05-14T05:12:37.747Z,31.08
2023-05-14T05:13:37.775Z,31.08
2023-05-14T05:14:37.804Z,31.10
2023-05-14T05:15:37.882Z,31.10
2023-05-14T05:16:37.902Z,31.12
2023-05-14T05:17:37.977Z,31.09
2023-05-14T05:18:37.992Z,31.12
2023-05-14T05:19:43.842Z,31.10
2023-05-14T05:20:39.148Z,31.09
2023-05-14T05:21:37.994Z,31.11
2023-05-14T05:22:37.992Z,31.11
2023-05-14T05:23:37.996Z,31.08
2023-05-14T05:24:37.979Z,31.11
2023-05-14T05:25:37.953Z,31.09
2023-05-14T05:26:37.990Z,31.09
2023-05-14T05:27:37.920Z,31.12
2023-05-14T05:28:37.951Z,31.08
2023-05-14T05:29:37.928Z,31.07
2023-05-14T05:30:37.951Z,31.11
2023-05-14T05:31:37.979Z,31.04
2023-05-14T05:32:37.979Z,31.10
2023-05-14T05:33:38.037Z,31.11
2023-05-14T05:34:38.092Z,31.09
2023-05-14T05:35:38.147Z,31.12
2023-05-14T05:36:38.148Z,31.11
2023-05-14T05:37:38.200Z,31.08
2023-05-14T05:38:38.276Z,31.12
2023-05-14T05:39:38.296Z,31.14
2023-05-14T05:40:38.336Z,31.14
2023-05-14T05:41:38.397Z,31.11
2023-05-14T05:42:38.452Z,31.12
2023-05-14T05:43:38.518Z,31.08
2023-05-14T05:44:38.520Z,31.12
2023-05-14T05:45:38.518Z,31.08
2023-05-14T05:46:38.605Z,31.06
2023-05-14T05:47:38.621Z,31.11
2023-05-14T05:48:38.637Z,31.11
2023-05-14T05:49:38.643Z,31.06
2023-05-14T05:50:38.692Z,31.10
2023-05-14T05:51:38.769Z,31.12
2023-05-14T05:52:38.819Z,31.08
2023-05-14T05:53:38.858Z,31.11
2023-05-14T05:54:39.137Z,31.08
2023-05-14T05:55:38.938Z,31.12
2023-05-14T05:56:38.943Z,31.08
2023-05-14T05:57:39.012Z,31.11
2023-05-14T05:58:39.016Z,31.11
2023-05-14T05:59:39.068Z,31.06
2023-05-14T06:00:39.146Z,31.10
2023-05-14T06:01:39.174Z,31.08
2023-05-14T06:02:39.307Z,31.12
2023-05-14T06:03:39.284Z,31.05
2023-05-14T06:04:39.305Z,31.12
2023-05-14T06:05:39.368Z,31.06
2023-05-14T06:06:39.386Z,31.09
2023-05-14T06:07:39.425Z,31.11
2023-05-14T06:08:39.454Z,31.06
2023-05-14T06:09:39.546Z,31.06
2023-05-14T06:10:39.551Z,31.07
2023-05-14T06:11:39.561Z,31.12
2023-05-14T06:12:39.626Z,31.08
2023-05-14T06:13:39.639Z,31.02
2023-05-14T06:14:39.685Z,31.09
2023-05-14T06:15:39.712Z,31.11
2023-05-14T06:16:39.830Z,31.11
2023-05-14T06:17:39.858Z,31.10
2023-05-14T06:18:39.903Z,31.07
2023-05-14T06:19:39.929Z,31.08
2023-05-14T06:20:39.925Z,31.08
2023-05-14T06:21:40.134Z,31.14
2023-05-14T06:22:40.004Z,31.14
2023-05-14T06:23:40.049Z,31.11
2023-05-14T06:24:40.075Z,31.04
2023-05-14T06:25:40.125Z,31.14
2023-05-14T06:26:40.173Z,31.08
2023-05-14T06:27:40.252Z,31.08
2023-05-14T06:28:40.265Z,31.05
2023-05-14T06:29:40.308Z,31.11
2023-05-14T06:30:40.333Z,31.10
2023-05-14T06:31:40.427Z,31.11
2023-05-14T06:32:40.452Z,31.10
2023-05-14T06:33:40.487Z,31.11
2023-05-14T06:34:40.479Z,31.06
2023-05-14T06:35:40.533Z,31.12
2023-05-14T06:36:41.159Z,31.08
2023-05-14T06:37:40.619Z,31.11
2023-05-14T06:38:40.727Z,31.05
2023-05-14T06:39:40.726Z,31.11
2023-05-14T06:40:40.740Z,31.06
2023-05-14T06:41:40.743Z,31.06
2023-05-14T06:42:40.787Z,31.10
2023-05-14T06:43:41.174Z,31.06
2023-05-14T06:44:40.867Z,31.10
2023-05-14T06:45:40.923Z,31.10
2023-05-14T06:46:40.977Z,31.10
2023-05-14T06:47:41.079Z,31.08
2023-05-14T06:48:41.077Z,31.10
2023-05-14T06:49:41.084Z,31.11
2023-05-14T06:50:41.111Z,31.06
2023-05-14T06:51:41.163Z,31.12
2023-05-14T06:52:41.231Z,31.11
2023-05-14T06:53:41.242Z,31.07
2023-05-14T06:54:41.279Z,31.10
2023-05-14T06:55:41.365Z,31.05
2023-05-14T06:56:41.396Z,31.08
2023-05-14T06:57:41.483Z,31.10
2023-05-14T06:58:41.551Z,31.05
2023-05-14T06:59:41.479Z,31.11
2023-05-14T07:00:41.605Z,31.08
2023-05-14T07:01:41.648Z,31.11
2023-05-14T07:02:41.755Z,31.05
2023-05-14T07:03:41.646Z,31.07
2023-05-14T07:04:41.887Z,31.10
2023-05-14T07:05:41.835Z,31.08
2023-05-14T07:06:41.807Z,31.07
2023-05-14T07:07:41.848Z,31.10
2023-05-14T07:08:41.855Z,31.05
2023-05-14T07:09:41.893Z,31.08
2023-05-14T07:10:41.967Z,31.07
2023-05-14T07:11:41.979Z,31.02
2023-05-14T07:12:42.021Z,31.07
2023-05-14T07:13:42.138Z,31.12
2023-05-14T07:14:42.092Z,31.07
2023-05-14T07:15:42.151Z,31.04
2023-05-14T07:16:42.239Z,31.02
2023-05-14T07:17:42.312Z,31.04
2023-05-14T07:18:42.270Z,31.07
2023-05-14T07:19:42.338Z,31.04
2023-05-14T07:20:42.388Z,31.04
2023-05-14T07:21:42.448Z,31.08
2023-05-14T07:22:42.453Z,31.08
2023-05-14T07:23:42.515Z,31.08
2023-05-14T07:24:42.516Z,31.08
2023-05-14T07:25:42.581Z,31.07
2023-05-14T07:26:42.588Z,31.02
2023-05-14T07:27:42.644Z,31.01
2023-05-14T07:28:42.710Z,31.04
2023-05-14T07:29:42.759Z,31.08
2023-05-14T07:30:42.758Z,31.07
2023-05-14T07:31:42.825Z,31.05
2023-05-14T07:32:42.896Z,31.04
2023-05-14T07:33:42.899Z,31.07
2023-05-14T07:34:42.915Z,31.02
2023-05-14T07:35:42.984Z,31.04
2023-05-14T07:36:43.002Z,31.02
2023-05-14T07:37:43.072Z,31.01
2023-05-14T07:38:43.141Z,31.05
2023-05-14T07:39:43.168Z,31.04
2023-05-14T07:40:43.216Z,31.04
2023-05-14T07:41:43.263Z,31.02
2023-05-14T07:42:43.260Z,31.03
2023-05-14T07:43:43.298Z,31.07
2023-05-14T07:44:43.373Z,31.02
2023-05-14T07:45:43.537Z,31.02
2023-05-14T07:46:43.468Z,31.04
2023-05-14T07:47:43.539Z,31.03
2023-05-14T07:48:43.564Z,31.07
2023-05-14T07:49:43.575Z,31.00
2023-05-14T07:50:43.597Z,31.03
2023-05-14T07:51:43.678Z,31.03
2023-05-14T07:52:43.672Z,31.01
2023-05-14T07:53:43.728Z,31.00
2023-05-14T07:54:43.756Z,31.01
2023-05-14T07:55:43.790Z,31.06
2023-05-14T07:56:43.835Z,31.04
2023-05-14T07:57:43.913Z,31.00
2023-05-14T07:58:43.913Z,31.00
2023-05-14T07:59:43.954Z,31.01
2023-05-14T08:00:44.031Z,31.00
2023-05-14T08:01:44.094Z,31.06
2023-05-14T08:02:44.420Z,31.03
2023-05-14T08:03:44.249Z,31.00
2023-05-14T08:04:44.332Z,31.00
2023-05-14T08:05:44.268Z,31.00
2023-05-14T08:06:44.267Z,31.03
2023-05-14T08:07:44.323Z,31.02
2023-05-14T08:08:44.353Z,30.94
2023-05-14T08:09:44.369Z,31.05
2023-05-14T08:10:44.529Z,30.99
2023-05-14T08:11:44.496Z,31.00
2023-05-14T08:12:44.524Z,31.03
2023-05-14T08:13:44.576Z,31.00
2023-05-14T08:14:44.622Z,31.03
2023-05-14T08:15:44.608Z,30.95
2023-05-14T08:16:44.725Z,30.99
2023-05-14T08:17:44.770Z,30.97
2023-05-14T08:18:44.884Z,31.02
2023-05-14T08:19:44.840Z,30.96
2023-05-14T08:20:44.841Z,31.00
2023-05-14T08:21:44.892Z,30.97
2023-05-14T08:22:44.929Z,31.03
2023-05-14T08:23:45.008Z,30.99
2023-05-14T08:24:45.015Z,30.93
2023-05-14T08:25:45.026Z,31.02
2023-05-14T08:26:45.071Z,31.02
2023-05-14T08:27:45.091Z,30.94
2023-05-14T08:28:45.188Z,31.00
2023-05-14T08:29:45.198Z,31.00
2023-05-14T08:30:45.238Z,31.00
2023-05-14T08:31:45.310Z,30.97
2023-05-14T08:32:45.364Z,30.94
2023-05-14T08:33:45.350Z,30.94
2023-05-14T08:34:45.384Z,30.94
2023-05-14T08:35:45.432Z,30.97
2023-05-14T08:36:45.504Z,30.94
2023-05-14T08:37:45.543Z,30.96
2023-05-14T08:38:45.529Z,30.96
2023-05-14T08:39:45.560Z,30.99
2023-05-14T08:40:45.603Z,30.94
2023-05-14T08:41:45.639Z,30.93
2023-05-14T08:42:45.677Z,30.98
2023-05-14T08:43:45.721Z,30.94
2023-05-14T08:44:45.784Z,30.93
2023-05-14T08:45:45.807Z,30.92
2023-05-14T08:46:45.847Z,30.94
2023-05-14T08:47:45.924Z,30.92
2023-05-14T08:48:45.996Z,30.93
2023-05-14T08:49:45.936Z,30.93
2023-05-14T08:50:45.986Z,30.93
2023-05-14T08:51:46.008Z,30.95
2023-05-14T08:52:46.066Z,30.87
2023-05-14T08:53:46.116Z,30.90
2023-05-14T08:54:46.136Z,30.93
2023-05-14T08:55:46.175Z,30.92
2023-05-14T08:56:46.203Z,30.92
2023-05-14T08:57:46.261Z,30.87
2023-05-14T08:58:46.271Z,30.94
2023-05-14T08:59:46.322Z,30.90
2023-05-14T09:00:46.335Z,30.92
2023-05-14T09:01:46.421Z,30.90
2023-05-14T09:02:46.491Z,30.87
2023-05-14T09:03:46.513Z,30.94
2023-05-14T09:04:46.453Z,30.90
2023-05-14T09:05:46.522Z,30.94
2023-05-14T09:06:46.584Z,30.92
2023-05-14T09:07:46.609Z,30.87
2023-05-14T09:08:46.610Z,30.89
2023-05-14T09:09:46.658Z,30.87
2023-05-14T09:10:46.700Z,30.94
2023-05-14T09:11:46.731Z,30.90
2023-05-14T09:12:46.751Z,30.92
2023-05-14T09:13:46.827Z,30.89
2023-05-14T09:14:46.840Z,30.92
2023-05-14T09:15:46.961Z,30.95
2023-05-14T09:16:46.959Z,30.95
2023-05-14T09:17:47.006Z,30.91
2023-05-14T09:18:46.994Z,30.88
2023-05-14T09:19:47.038Z,30.96
2023-05-14T09:20:47.064Z,30.94
2023-05-14T09:21:47.071Z,30.90
2023-05-14T09:22:47.112Z,30.89
2023-05-14T09:23:47.140Z,30.94
2023-05-14T09:24:47.203Z,30.92
2023-05-14T09:25:47.237Z,30.89
2023-05-14T09:26:47.274Z,30.92
2023-05-14T09:27:47.270Z,30.94
2023-05-14T09:28:47.330Z,30.89
2023-05-14T09:29:47.395Z,30.89
2023-05-14T09:30:47.369Z,30.95
2023-05-14T09:31:47.483Z,30.92
2023-05-14T09:32:47.489Z,30.94
2023-05-14T09:33:47.491Z,30.91
2023-05-14T09:34:48.242Z,30.91
2023-05-14T09:35:47.509Z,30.88
2023-05-14T09:36:47.547Z,30.92
2023-05-14T09:37:47.603Z,30.94
2023-05-14T09:38:47.737Z,30.94
2023-05-14T09:39:47.680Z,30.91
2023-05-14T09:40:47.734Z,30.94
2023-05-14T09:41:47.747Z,30.89
2023-05-14T09:42:47.786Z,30.94
2023-05-14T09:43:47.838Z,30.95
2023-05-14T09:44:47.882Z,30.92
2023-05-14T09:45:47.915Z,30.97
2023-05-14T09:46:47.949Z,30.89
2023-05-14T09:47:48.116Z,30.95
2023-05-14T09:48:48.010Z,30.88
2023-05-14T09:49:48.043Z,30.92
2023-05-14T09:50:48.095Z,30.92
2023-05-14T09:51:48.061Z,30.95
2023-05-14T09:52:48.108Z,30.92
2023-05-14T09:53:48.177Z,30.94
2023-05-14T09:54:48.169Z,30.91
2023-05-14T09:55:48.205Z,30.95
2023-05-14T09:56:48.275Z,30.94
2023-05-14T09:57:48.302Z,30.92
2023-05-14T09:58:48.342Z,30.92
2023-05-14T09:59:48.392Z,30.92
2023-05-14T10:00:48.718Z,30.96
2023-05-14T10:01:48.434Z,30.88
2023-05-14T10:02:48.491Z,30.94
2023-05-14T10:03:48.514Z,30.95
2023-05-14T10:04:48.639Z,30.89
2023-05-14T10:05:48.617Z,30.89
2023-05-14T10:06:48.617Z,30.89
2023-05-14T10:07:48.669Z,30.89
2023-05-14T10:08:48.678Z,30.92
2023-05-14T10:09:48.739Z,30.91
2023-05-14T10:10:48.805Z,30.92
2023-05-14T10:11:48.800Z,30.88
2023-05-14T10:12:48.849Z,30.92
2023-05-14T10:13:48.910Z,30.89
2023-05-14T10:14:48.936Z,30.86
2023-05-14T10:15:48.994Z,30.92
2023-05-14T10:16:48.991Z,30.91
2023-05-14T10:17:49.045Z,30.94
2023-05-14T10:18:49.087Z,30.94
2023-05-14T10:19:49.090Z,30.89
2023-05-14T10:20:49.110Z,30.95
2023-05-14T10:21:49.159Z,30.92
2023-05-14T10:22:49.160Z,30.86
2023-05-14T10:23:49.189Z,30.94
2023-05-14T10:24:49.219Z,30.89
2023-05-14T10:25:49.262Z,30.94
2023-05-14T10:26:49.292Z,30.92
2023-05-14T10:27:49.293Z,30.89
2023-05-14T10:28:49.336Z,30.91
2023-05-14T10:29:49.360Z,30.91
2023-05-14T10:30:49.468Z,30.89
2023-05-14T10:31:49.530Z,30.93
2023-05-14T10:32:49.552Z,30.97
2023-05-14T10:33:49.436Z,30.95
2023-05-14T10:34:49.469Z,30.93
2023-05-14T10:35:49.504Z,30.93
2023-05-14T10:36:49.571Z,30.98
2023-05-14T10:37:49.594Z,30.94
2023-05-14T10:38:49.612Z,30.97
2023-05-14T10:39:50.240Z,30.88
2023-05-14T10:40:50.761Z,30.97
2023-05-14T10:41:49.754Z,30.94
2023-05-14T10:42:49.796Z,30.94
2023-05-14T10:43:49.832Z,30.91
2023-05-14T10:44:49.838Z,30.92
2023-05-14T10:45:49.858Z,30.91
2023-05-14T10:46:49.979Z,30.98
2023-05-14T10:47:50.004Z,30.94
2023-05-14T10:48:50.117Z,30.91
2023-05-14T10:49:49.995Z,30.93
2023-05-14T10:50:50.108Z,30.89
2023-05-14T10:51:50.089Z,30.95
2023-05-14T10:52:50.152Z,30.89
2023-05-14T10:53:50.150Z,30.89
2023-05-14T10:54:50.164Z,30.86
2023-05-14T10:55:50.181Z,30.93
2023-05-14T10:56:50.233Z,30.93
2023-05-14T10:57:50.271Z,30.89
2023-05-14T10:58:50.310Z,30.89
2023-05-14T10:59:50.364Z,30.93
2023-05-14T11:00:50.365Z,30.88
2023-05-14T11:01:50.348Z,30.88
2023-05-14T11:02:50.452Z,30.93
2023-05-14T11:03:50.490Z,30.94
2023-05-14T11:04:50.431Z,30.88
2023-05-14T11:05:50.446Z,30.94
2023-05-14T11:06:50.499Z,30.90
2023-05-14T11:07:50.505Z,30.90
2023-05-14T11:08:50.580Z,30.91
2023-05-14T11:09:50.561Z,30.94
2023-05-14T11:10:51.757Z,30.90
2023-05-14T11:11:50.640Z,30.93
2023-05-14T11:12:50.709Z,30.93
2023-05-14T11:13:50.692Z,30.93
2023-05-14T11:14:50.760Z,30.96
2023-05-14T11:15:50.780Z,30.93
2023-05-14T11:16:50.848Z,30.91
2023-05-14T11:17:50.935Z,30.90
2023-05-14T11:18:50.846Z,30.97
2023-05-14T11:19:51.297Z,30.93
2023-05-14T11:20:50.901Z,30.91
2023-05-14T11:21:50.942Z,30.91
2023-05-14T11:22:50.963Z,30.88
2023-05-14T11:23:50.975Z,30.94
2023-05-14T11:24:51.800Z,30.94
2023-05-14T11:25:51.063Z,30.88
2023-05-14T11:26:51.047Z,30.93
2023-05-14T11:27:51.096Z,30.94
2023-05-14T11:28:51.169Z,30.94
2023-05-14T11:29:51.175Z,30.91
2023-05-14T11:30:51.185Z,30.90
2023-05-14T11:31:51.210Z,30.91
2023-05-14T11:32:51.327Z,30.88
2023-05-14T11:33:51.310Z,30.94
2023-05-14T11:34:51.312Z,30.87
2023-05-14T11:35:51.326Z,30.91
2023-05-14T11:36:51.369Z,30.96
2023-05-14T11:37:51.452Z,30.90
2023-05-14T11:38:51.552Z,30.86
2023-05-14T11:39:51.494Z,30.90
2023-05-14T11:40:51.490Z,30.88
2023-05-14T11:41:51.821Z,30.88
2023-05-14T11:42:51.598Z,30.94
2023-05-14T11:43:51.611Z,30.91
2023-05-14T11:44:51.826Z,30.93
2023-05-14T11:45:52.376Z,30.90
2023-05-14T11:46:51.711Z,30.90
2023-05-14T11:47:51.735Z,30.94
2023-05-14T11:48:51.762Z,30.96
2023-05-14T11:49:51.758Z,30.96
2023-05-14T11:50:51.757Z,30.94
2023-05-14T11:51:51.836Z,30.96
2023-05-14T11:52:51.838Z,30.93
2023-05-14T11:53:51.864Z,30.94
2023-05-14T11:54:51.966Z,30.93
2023-05-14T11:55:51.995Z,30.94
2023-05-14T11:56:51.974Z,30.94
2023-05-14T11:57:52.015Z,30.95
2023-05-14T11:58:52.017Z,30.91
2023-05-14T11:59:52.089Z,30.91
2023-05-14T12:00:52.104Z,31.00
2023-05-14T12:01:52.111Z,30.96
2023-05-14T12:02:52.194Z,30.88
2023-05-14T12:03:52.299Z,30.94
2023-05-14T12:04:52.243Z,30.91
2023-05-14T12:05:52.228Z,30.96
2023-05-14T12:06:52.223Z,30.94
2023-05-14T12:07:52.283Z,30.95
2023-05-14T12:08:52.290Z,30.88
2023-05-14T12:09:53.245Z,30.96
2023-05-14T12:10:52.372Z,30.93
2023-05-14T12:11:52.418Z,30.93
2023-05-14T12:12:52.417Z,30.90
2023-05-14T12:13:52.495Z,30.94
2023-05-14T12:14:52.511Z,30.96
2023-05-14T12:15:52.752Z,30.96
2023-05-14T12:16:52.560Z,30.93
2023-05-14T12:17:52.748Z,30.93
2023-05-14T12:18:52.697Z,30.93
2023-05-14T12:19:52.666Z,30.95
2023-05-14T12:20:52.667Z,30.95
2023-05-14T12:21:52.746Z,30.93
2023-05-14T12:22:52.769Z,31.02
2023-05-14T12:23:52.773Z,31.00
2023-05-14T12:24:52.812Z,30.97
2023-05-14T12:25:53.805Z,30.94
2023-05-14T12:26:52.850Z,30.93
2023-05-14T12:27:52.890Z,30.97
2023-05-14T12:28:52.946Z,30.91
2023-05-14T12:29:52.931Z,30.93
2023-05-14T12:30:52.982Z,30.94
2023-05-14T12:31:53.108Z,30.97
2023-05-14T12:32:53.214Z,30.96
2023-05-14T12:33:53.076Z,30.93
2023-05-14T12:34:53.105Z,30.99
2023-05-14T12:35:53.116Z,30.96
2023-05-14T12:36:53.118Z,30.99
2023-05-14T12:37:53.218Z,30.94
2023-05-14T12:38:53.180Z,30.94
2023-05-14T12:39:53.239Z,30.91
2023-05-14T12:40:53.299Z,30.99
2023-05-14T12:41:53.299Z,30.99
2023-05-14T12:42:54.995Z,31.00
2023-05-14T12:43:53.322Z,31.00
2023-05-14T12:44:53.330Z,30.94
2023-05-14T12:45:53.333Z,30.96
2023-05-14T12:46:53.391Z,30.96
2023-05-14T12:47:53.330Z,31.02
2023-05-14T12:48:53.562Z,30.97
2023-05-14T12:49:53.287Z,30.94
2023-05-14T12:50:53.271Z,30.97
2023-05-14T12:52:07.581Z,31.00
2023-05-14T12:52:54.255Z,30.94